Time;durP1;ratioP1;P1;durP2;ratioP2;P2;SDS_P1;SDS_P2;PMS_P1;PMS_P2;Temp;Humidity;BMP_temperature;BMP_pressure;BME280_temperature;BME280_humidity;BME280_pressure;Samples;Min_cycle;Max_cycle;Signal;HPM_P1;HPM_P2
2024/01/20 00:00:41;;;;;;;16.38;8.18;;;0.90;99.90;;;;;;4993648;28;20157;-75
2024/01/20 00:03:07;;;;;;;14.85;8.80;;;1.00;99.90;;;;;;4994782;28;20181;-75
2024/01/20 00:05:33;;;;;;;15.50;9.43;;;0.90;99.90;;;;;;5006721;28;20445;-75
2024/01/20 00:07:58;;;;;;;12.82;8.50;;;1.00;99.90;;;;;;4993956;28;20049;-76
2024/01/20 00:10:24;;;;;;;17.75;9.23;;;1.10;99.90;;;;;;4986255;28;20041;-75
2024/01/20 00:12:50;;;;;;;17.25;8.88;;;1.00;99.90;;;;;;4994626;28;20216;-76
2024/01/20 00:15:15;;;;;;;12.07;9.15;;;1.10;99.90;;;;;;4995915;28;20046;-75
2024/01/20 00:17:41;;;;;;;13.80;8.82;;;1.10;99.90;;;;;;4995370;28;20042;-75
2024/01/20 00:20:08;;;;;;;16.85;9.60;;;1.10;99.90;;;;;;4989660;28;20516;-75
2024/01/20 00:22:34;;;;;;;15.98;9.45;;;1.10;99.90;;;;;;5008516;28;20050;-75
2024/01/20 00:25:02;;;;;;;16.60;9.23;;;1.20;99.90;;;;;;4997722;28;20473;-75
2024/01/20 00:27:29;;;;;;;18.75;9.80;;;1.30;99.90;;;;;;5009500;28;20488;-76
2024/01/20 00:29:55;;;;;;;15.60;9.50;;;1.30;99.90;;;;;;4985936;28;20493;-75
2024/01/20 00:32:21;;;;;;;16.33;9.00;;;1.30;99.90;;;;;;4993566;28;20351;-75
2024/01/20 00:34:46;;;;;;;17.55;10.05;;;1.30;99.90;;;;;;4996364;28;20046;-76
2024/01/20 00:37:12;;;;;;;20.70;9.57;;;1.20;99.90;;;;;;5009734;28;20131;-76
2024/01/20 00:39:38;;;;;;;17.15;9.63;;;1.40;99.90;;;;;;4992524;28;20070;-76
2024/01/20 00:42:04;;;;;;;14.52;9.65;;;1.30;99.90;;;;;;5018506;28;20041;-76
2024/01/20 00:44:29;;;;;;;15.65;9.82;;;1.40;99.90;;;;;;4996607;28;20038;-76
2024/01/20 00:46:56;;;;;;;13.57;10.20;;;1.50;99.90;;;;;;5010407;28;20076;-76
2024/01/20 00:49:22;;;;;;;15.65;9.48;;;1.50;99.90;;;;;;5021762;28;20049;-76
2024/01/20 00:51:47;;;;;;;17.85;10.27;;;1.40;99.90;;;;;;5027308;28;20569;-74
2024/01/20 00:54:13;;;;;;;15.32;9.93;;;1.50;99.90;;;;;;4994506;28;20041;-74
2024/01/20 00:56:39;;;;;;;14.32;10.13;;;1.50;99.90;;;;;;4998372;28;20037;-75
2024/01/20 00:59:05;;;;;;;20.63;10.38;;;1.50;99.90;;;;;;4996633;28;20528;-75
2024/01/20 01:01:30;;;;;;;18.75;11.50;;;1.60;99.90;;;;;;4985062;28;20045;-75
2024/01/20 01:03:56;;;;;;;16.27;10.55;;;1.50;99.90;;;;;;4986664;28;20587;-74
2024/01/20 01:06:22;;;;;;;19.75;10.68;;;1.60;99.90;;;;;;4996070;28;20048;-75
2024/01/20 01:08:48;;;;;;;21.10;10.73;;;1.60;99.90;;;;;;5007494;28;20085;-74
2024/01/20 01:11:13;;;;;;;17.20;11.25;;;1.40;99.90;;;;;;4994199;28;20038;-75
2024/01/20 01:13:40;;;;;;;16.85;10.45;;;1.50;99.90;;;;;;4998537;28;20424;-75
2024/01/20 01:16:06;;;;;;;16.58;11.05;;;1.40;99.90;;;;;;4982127;28;20038;-75
2024/01/20 01:18:33;;;;;;;17.35;11.88;;;1.40;99.90;;;;;;5009283;28;20053;-75
2024/01/20 01:20:58;;;;;;;19.48;12.15;;;1.40;99.90;;;;;;4991512;28;20096;-74
2024/01/20 01:23:24;;;;;;;16.70;12.00;;;1.50;99.90;;;;;;4989576;28;20046;-75
2024/01/20 01:25:50;;;;;;;17.30;11.05;;;1.40;99.90;;;;;;4987432;28;20454;-75
2024/01/20 01:28:16;;;;;;;20.27;11.95;;;1.40;99.90;;;;;;4991031;28;20117;-75
2024/01/20 01:30:42;;;;;;;20.15;12.60;;;1.30;99.90;;;;;;5005149;28;20052;-75
2024/01/20 01:33:07;;;;;;;18.25;12.23;;;1.20;99.90;;;;;;5026105;28;20651;-74
2024/01/20 01:35:33;;;;;;;21.88;13.18;;;1.30;99.90;;;;;;4997254;28;20092;-75
2024/01/20 01:37:59;;;;;;;19.83;13.07;;;1.30;99.90;;;;;;4989617;28;20358;-75
2024/01/20 01:40:25;;;;;;;17.00;12.65;;;1.20;99.90;;;;;;4987167;28;20049;-75
2024/01/20 01:42:56;;;;;;;19.58;12.68;;;1.10;99.90;;;;;;5009731;28;20046;-75
2024/01/20 01:45:25;;;;;;;17.27;12.25;;;1.20;99.90;;;;;;4995704;28;20516;-75
2024/01/20 01:47:53;;;;;;;23.50;13.18;;;1.20;99.90;;;;;;4998205;28;20068;-75
2024/01/20 01:50:20;;;;;;;16.98;13.10;;;1.20;99.90;;;;;;4992555;28;20045;-75
2024/01/20 01:52:54;;;;;;;22.15;14.10;;;1.20;99.90;;;;;;4981620;28;20119;-75
2024/01/20 01:55:23;;;;;;;23.13;14.27;;;1.20;99.90;;;;;;4988622;28;20057;-75
2024/01/20 01:57:52;;;;;;;18.52;14.98;;;1.20;99.90;;;;;;5004386;28;20405;-74
2024/01/20 02:00:18;;;;;;;21.58;15.23;;;1.10;99.90;;;;;;4992846;28;20050;-75
2024/01/20 02:02:43;;;;;;;21.33;15.32;;;1.10;99.90;;;;;;4989127;28;20048;-74
2024/01/20 02:05:10;;;;;;;19.70;15.38;;;1.10;99.90;;;;;;4995408;28;20046;-74
2024/01/20 02:07:38;;;;;;;20.73;15.02;;;1.00;99.90;;;;;;5024098;28;20068;-75
2024/01/20 02:10:07;;;;;;;23.67;15.93;;;0.90;99.90;;;;;;4989843;28;20356;-75
2024/01/20 02:12:34;;;;;;;21.05;16.42;;;1.00;99.90;;;;;;5006264;28;20344;-74
2024/01/20 02:15:00;;;;;;;20.98;15.75;;;0.90;99.90;;;;;;4988026;28;20046;-75
2024/01/20 02:17:26;;;;;;;24.13;16.13;;;0.80;99.90;;;;;;4990722;28;20042;-75
2024/01/20 02:19:52;;;;;;;22.33;16.75;;;0.80;99.90;;;;;;4995595;28;20508;-75
2024/01/20 02:22:18;;;;;;;23.77;17.85;;;0.90;99.90;;;;;;5004677;28;20678;-75
2024/01/20 02:24:48;;;;;;;23.55;17.25;;;0.90;99.90;;;;;;4993198;28;20413;-74
2024/01/20 02:27:17;;;;;;;24.17;16.70;;;0.80;99.90;;;;;;5022164;28;20069;-75
2024/01/20 02:29:43;;;;;;;21.92;17.58;;;0.80;99.90;;;;;;4993273;28;20073;-75
2024/01/20 02:32:09;;;;;;;25.27;17.73;;;0.80;99.90;;;;;;4985692;28;20464;-75
2024/01/20 02:34:37;;;;;;;26.88;17.95;;;0.70;99.90;;;;;;4986291;28;20045;-75
2024/01/20 02:37:08;;;;;;;26.20;18.08;;;0.70;99.90;;;;;;4988902;28;20073;-75
2024/01/20 02:39:34;;;;;;;25.38;18.10;;;0.80;99.90;;;;;;4991148;28;20049;-75
2024/01/20 02:42:00;;;;;;;22.77;18.05;;;0.60;99.90;;;;;;5023675;28;20122;-75
2024/01/20 02:44:25;;;;;;;25.48;19.17;;;0.60;99.90;;;;;;4994559;28;20144;-74
2024/01/20 02:46:52;;;;;;;26.55;18.95;;;0.50;99.90;;;;;;4979884;28;20493;-75
2024/01/20 02:49:19;;;;;;;24.92;19.90;;;0.50;99.90;;;;;;5027153;28;20906;-74
2024/01/20 02:51:44;;;;;;;26.58;20.20;;;0.50;99.90;;;;;;5000854;28;20049;-75
2024/01/20 02:54:10;;;;;;;26.80;19.63;;;0.60;99.90;;;;;;4996127;28;20049;-74
2024/01/20 02:56:36;;;;;;;23.63;19.77;;;0.50;99.90;;;;;;4977425;28;20511;-75
2024/01/20 02:59:02;;;;;;;25.67;20.42;;;0.50;99.90;;;;;;4975189;28;20038;-75
2024/01/20 03:01:27;;;;;;;26.10;21.17;;;0.40;99.90;;;;;;4997471;28;20042;-75
2024/01/20 03:03:53;;;;;;;30.60;21.60;;;0.50;99.90;;;;;;4991472;28;20490;-75
2024/01/20 03:06:19;;;;;;;28.90;22.63;;;0.50;99.90;;;;;;5026100;28;20049;-75
2024/01/20 03:08:45;;;;;;;28.67;22.38;;;0.40;99.90;;;;;;5004959;28;20037;-75
2024/01/20 03:11:10;;;;;;;27.05;21.75;;;0.50;99.90;;;;;;4991065;28;20093;-75
2024/01/20 03:13:36;;;;;;;31.58;23.65;;;0.50;99.90;;;;;;4990223;28;20464;-75
2024/01/20 03:16:02;;;;;;;32.08;24.33;;;0.40;99.90;;;;;;4997724;28;20108;-74
2024/01/20 03:18:27;;;;;;;29.55;24.20;;;0.40;99.90;;;;;;4977181;28;20050;-75
2024/01/20 03:20:53;;;;;;;33.80;24.15;;;0.40;99.90;;;;;;4993516;28;20129;-75
2024/01/20 03:23:19;;;;;;;31.25;25.02;;;0.40;99.90;;;;;;4990387;28;20409;-75
2024/01/20 03:25:45;;;;;;;37.28;25.63;;;0.40;99.90;;;;;;4988644;28;20048;-75
2024/01/20 03:28:11;;;;;;;35.85;25.65;;;0.40;99.90;;;;;;4991776;28;20080;-74
2024/01/20 03:30:36;;;;;;;33.85;26.27;;;0.40;99.90;;;;;;5008529;28;20053;-75
2024/01/20 03:33:02;;;;;;;33.28;26.20;;;0.30;99.90;;;;;;4993240;28;20160;-74
2024/01/20 03:35:28;;;;;;;33.55;26.02;;;0.30;99.90;;;;;;5028840;28;20056;-75
2024/01/20 03:37:54;;;;;;;38.45;24.75;;;0.40;99.90;;;;;;4995789;28;20061;-74
2024/01/20 03:40:19;;;;;;;39.95;26.65;;;0.40;99.90;;;;;;4976495;28;20445;-74
2024/01/20 03:42:45;;;;;;;38.53;27.30;;;0.50;99.90;;;;;;5025715;28;20074;-75
2024/01/20 03:45:11;;;;;;;38.33;26.55;;;0.40;99.90;;;;;;4986363;28;20049;-74
2024/01/20 03:47:36;;;;;;;34.95;26.65;;;0.30;99.90;;;;;;4995470;28;20579;-75
2024/01/20 03:50:03;;;;;;;40.90;27.23;;;0.20;99.90;;;;;;4989293;28;20519;-74
2024/01/20 03:52:29;;;;;;;34.33;27.05;;;0.20;99.90;;;;;;5026182;28;20057;-75
2024/01/20 03:54:55;;;;;;;34.58;27.90;;;0.10;99.90;;;;;;5020252;28;20103;-73
2024/01/20 03:57:21;;;;;;;36.92;28.20;;;0.00;99.90;;;;;;5011701;28;20465;-75
2024/01/20 03:59:47;;;;;;;40.83;29.10;;;-0.10;99.90;;;;;;4976332;28;20065;-74
2024/01/20 04:02:12;;;;;;;36.55;28.67;;;-0.10;99.90;;;;;;4992528;28;20038;-75
2024/01/20 04:04:38;;;;;;;40.40;29.80;;;-0.10;99.90;;;;;;4999470;28;20192;-74
2024/01/20 04:07:05;;;;;;;40.35;30.08;;;-0.10;99.90;;;;;;4991033;28;20486;-75
2024/01/20 04:09:31;;;;;;;40.35;29.98;;;-0.20;99.90;;;;;;4982761;28;20038;-74
2024/01/20 04:11:57;;;;;;;39.92;30.48;;;-0.20;99.90;;;;;;4991785;28;20575;-74
2024/01/20 04:14:23;;;;;;;41.47;29.77;;;-0.20;99.90;;;;;;4994920;28;20040;-74
2024/01/20 04:16:48;;;;;;;41.75;31.50;;;-0.30;99.90;;;;;;5025669;28;20822;-74
2024/01/20 04:19:14;;;;;;;41.13;30.30;;;-0.20;99.90;;;;;;4995575;28;20044;-74
2024/01/20 04:21:40;;;;;;;41.50;30.95;;;-0.30;99.90;;;;;;4988214;28;20125;-74
2024/01/20 04:24:06;;;;;;;39.90;30.40;;;-0.30;99.90;;;;;;4991575;28;20053;-74
2024/01/20 04:26:32;;;;;;;40.17;31.40;;;-0.30;99.90;;;;;;4992443;28;20038;-73
2024/01/20 04:28:58;;;;;;;40.75;31.23;;;-0.30;99.90;;;;;;5028798;28;20050;-74
2024/01/20 04:31:23;;;;;;;39.60;31.92;;;-0.30;99.90;;;;;;4987427;28;20454;-74
2024/01/20 04:33:49;;;;;;;44.88;33.92;;;-0.40;99.90;;;;;;4984354;28;20763;-74
2024/01/20 04:36:15;;;;;;;40.13;32.65;;;-0.30;99.90;;;;;;5002589;28;20058;-74
2024/01/20 04:38:41;;;;;;;42.30;32.75;;;-0.30;99.90;;;;;;4999130;28;20410;-73
2024/01/20 04:41:06;;;;;;;45.60;33.50;;;-0.30;99.90;;;;;;4999170;28;20069;-74
2024/01/20 04:43:32;;;;;;;45.85;33.78;;;-0.40;99.90;;;;;;4982995;28;20091;-74
2024/01/20 04:45:58;;;;;;;46.97;34.05;;;-0.40;99.90;;;;;;4995381;28;20104;-74
2024/01/20 04:48:24;;;;;;;46.03;34.08;;;-0.40;99.90;;;;;;5026575;28;20030;-73
2024/01/20 04:50:49;;;;;;;48.72;34.03;;;-0.30;99.90;;;;;;5026410;28;20159;-74
2024/01/20 04:53:15;;;;;;;43.22;33.38;;;-0.50;99.90;;;;;;5025697;28;20485;-74
2024/01/20 04:55:41;;;;;;;47.35;32.97;;;-0.40;99.90;;;;;;4998104;28;20045;-74
2024/01/20 04:58:06;;;;;;;51.40;33.72;;;-0.40;99.90;;;;;;4990931;28;20513;-74
2024/01/20 05:00:33;;;;;;;48.25;34.10;;;-0.50;99.90;;;;;;4990686;28;20034;-74
2024/01/20 05:02:59;;;;;;;45.00;34.08;;;-0.30;99.90;;;;;;5002433;28;20051;-74
2024/01/20 05:05:25;;;;;;;47.22;33.35;;;-0.30;99.90;;;;;;4993314;28;20050;-73
2024/01/20 05:07:50;;;;;;;47.65;33.58;;;-0.30;99.90;;;;;;4993558;28;20046;-74
2024/01/20 05:10:16;;;;;;;46.58;33.53;;;-0.30;99.90;;;;;;4986723;28;20133;-73
2024/01/20 05:12:42;;;;;;;47.33;33.80;;;-0.40;99.90;;;;;;4988930;28;20497;-74
2024/01/20 05:15:11;;;;;;;50.72;33.45;;;-0.30;99.90;;;;;;4993352;28;20500;-74
2024/01/20 05:17:37;;;;;;;45.55;33.28;;;-0.50;99.90;;;;;;4995545;28;20045;-74
2024/01/20 05:20:05;;;;;;;49.85;33.72;;;-0.40;99.90;;;;;;5025037;28;20046;-74
2024/01/20 05:22:31;;;;;;;51.33;34.05;;;-0.40;99.90;;;;;;5008709;28;20329;-74
2024/01/20 05:24:57;;;;;;;53.20;33.55;;;-0.50;99.90;;;;;;4998111;28;20046;-75
2024/01/20 05:27:23;;;;;;;46.13;33.58;;;-0.50;99.90;;;;;;4988017;28;20042;-74
2024/01/20 05:29:48;;;;;;;50.85;33.55;;;-0.50;99.90;;;;;;5022387;28;20051;-74
2024/01/20 05:32:15;;;;;;;52.60;33.65;;;-0.50;99.90;;;;;;4987802;28;20041;-74
2024/01/20 05:34:41;;;;;;;51.30;34.83;;;-0.50;99.90;;;;;;4992704;28;20041;-74
2024/01/20 05:37:07;;;;;;;51.60;34.78;;;-0.60;99.90;;;;;;4986289;28;20494;-74
2024/01/20 05:39:33;;;;;;;53.72;33.90;;;-0.60;99.90;;;;;;4991630;28;20413;-74
2024/01/20 05:41:58;;;;;;;57.83;35.38;;;-0.50;99.90;;;;;;5023586;28;20041;-74
2024/01/20 05:44:25;;;;;;;56.42;34.42;;;-0.50;99.90;;;;;;5011081;28;20402;-74
2024/01/20 05:46:50;;;;;;;55.63;34.95;;;-0.60;99.90;;;;;;4999975;28;20335;-74
2024/01/20 05:49:16;;;;;;;52.85;34.42;;;-0.40;99.90;;;;;;5023560;28;20048;-74
2024/01/20 05:51:42;;;;;;;59.20;34.55;;;-0.60;99.90;;;;;;4997597;28;20030;-74
2024/01/20 05:54:08;;;;;;;56.40;33.72;;;-0.50;99.90;;;;;;4992878;28;20033;-74
2024/01/20 05:56:33;;;;;;;50.67;33.63;;;-0.60;99.90;;;;;;4996887;28;20063;-75
2024/01/20 05:58:59;;;;;;;55.67;33.85;;;-0.60;99.90;;;;;;4994916;28;20033;-75
2024/01/20 06:01:25;;;;;;;56.30;35.75;;;-0.60;99.90;;;;;;4994369;28;20870;-75
2024/01/20 06:03:51;;;;;;;57.55;34.20;;;-0.60;99.90;;;;;;5023243;28;20556;-75
2024/01/20 06:06:16;;;;;;;54.03;34.05;;;-0.60;99.90;;;;;;4994988;28;20366;-75
2024/01/20 06:08:42;;;;;;;59.30;36.28;;;-0.70;99.90;;;;;;4992519;28;20096;-75
2024/01/20 06:11:11;;;;;;;59.67;35.03;;;-0.60;99.90;;;;;;4989659;28;20052;-75
2024/01/20 06:13:37;;;;;;;60.35;35.38;;;-0.70;99.90;;;;;;5007345;28;20076;-75
2024/01/20 06:16:05;;;;;;;56.65;35.92;;;-0.60;99.90;;;;;;4996924;28;20497;-75
2024/01/20 06:18:31;;;;;;;59.97;35.78;;;-0.70;99.90;;;;;;4993999;28;20046;-75
2024/01/20 06:20:59;;;;;;;59.78;34.85;;;-0.60;99.90;;;;;;4982223;28;20289;-75
2024/01/20 06:23:25;;;;;;;62.83;35.67;;;-0.70;99.90;;;;;;4998724;28;20046;-76
2024/01/20 06:25:51;;;;;;;61.80;34.92;;;-0.60;99.90;;;;;;5005378;28;20555;-75
2024/01/20 06:28:17;;;;;;;60.15;33.15;;;-0.70;99.90;;;;;;4985426;28;20046;-75
2024/01/20 06:30:46;;;;;;;62.22;35.47;;;-0.80;99.90;;;;;;5024672;28;20042;-74
2024/01/20 06:33:12;;;;;;;58.35;33.92;;;-0.70;99.90;;;;;;4989344;28;20053;-75
2024/01/20 06:35:38;;;;;;;64.95;36.47;;;-0.70;99.90;;;;;;4992571;28;20076;-75
2024/01/20 06:38:04;;;;;;;55.63;33.65;;;-0.70;99.90;;;;;;4996038;28;20176;-75
2024/01/20 06:40:30;;;;;;;59.75;36.17;;;-0.70;99.90;;;;;;4996154;28;20053;-74
2024/01/20 06:42:56;;;;;;;59.65;34.00;;;-0.70;99.90;;;;;;4997738;28;20096;-75
2024/01/20 06:45:21;;;;;;;62.63;34.75;;;-0.80;99.90;;;;;;4995503;28;20336;-75
2024/01/20 06:47:47;;;;;;;58.33;33.75;;;-0.60;99.90;;;;;;4989841;28;20042;-75
2024/01/20 06:50:13;;;;;;;60.88;34.88;;;-0.70;99.90;;;;;;4998529;28;20107;-75
2024/01/20 06:52:39;;;;;;;58.83;34.00;;;-0.70;99.90;;;;;;5024032;28;20050;-75
2024/01/20 06:55:05;;;;;;;57.20;34.13;;;-0.60;99.90;;;;;;4986320;28;20116;-75
2024/01/20 06:57:31;;;;;;;62.30;33.92;;;-0.70;99.90;;;;;;4981585;28;20038;-74
2024/01/20 06:59:57;;;;;;;61.72;33.55;;;-0.70;99.90;;;;;;5000750;28;20045;-71
2024/01/20 07:02:22;;;;;;;61.75;35.25;;;-0.60;99.90;;;;;;5024676;28;20152;-71
2024/01/20 07:04:48;;;;;;;60.17;33.53;;;-0.60;99.90;;;;;;4990264;28;20677;-72
2024/01/20 07:07:14;;;;;;;58.65;33.67;;;-0.70;99.90;;;;;;4979923;28;20042;-71
2024/01/20 07:09:40;;;;;;;56.60;33.78;;;-0.70;99.90;;;;;;4979072;28;20059;-72
2024/01/20 07:12:07;;;;;;;56.38;33.50;;;-0.60;99.90;;;;;;4977694;28;20056;-71
2024/01/20 07:14:32;;;;;;;57.13;32.50;;;-0.50;99.90;;;;;;4993606;28;20621;-72
2024/01/20 07:16:59;;;;;;;57.03;33.47;;;-0.50;99.90;;;;;;4976130;28;20042;-72
2024/01/20 07:19:25;;;;;;;61.58;33.72;;;-0.40;99.90;;;;;;4989678;28;20050;-72
2024/01/20 07:21:50;;;;;;;54.83;31.73;;;-0.40;99.90;;;;;;4986029;28;20038;-71
2024/01/20 07:24:16;;;;;;;51.75;31.83;;;-0.30;99.90;;;;;;4976277;28;20490;-71
2024/01/20 07:26:45;;;;;;;56.05;30.92;;;-0.30;99.90;;;;;;4978617;28;20097;-71
2024/01/20 07:29:11;;;;;;;53.22;31.50;;;-0.20;99.90;;;;;;4989682;28;20042;-71
2024/01/20 07:31:36;;;;;;;52.47;30.85;;;-0.20;99.90;;;;;;4988981;28;20053;-71
2024/01/20 07:34:02;;;;;;;57.75;32.13;;;-0.20;99.90;;;;;;5021157;28;20121;-72
2024/01/20 07:36:28;;;;;;;52.30;31.17;;;0.00;99.90;;;;;;4986139;28;20429;-72
2024/01/20 07:38:55;;;;;;;56.80;31.13;;;0.00;99.90;;;;;;5020201;28;20055;-72
2024/01/20 07:41:20;;;;;;;58.05;32.35;;;0.10;99.90;;;;;;4975315;28;20473;-71
2024/01/20 07:43:47;;;;;;;50.63;30.38;;;0.10;99.90;;;;;;4993392;28;20045;-71
2024/01/20 07:46:22;;;;;;;55.25;31.35;;;0.10;99.90;;;;;;4977672;28;20041;-72
2024/01/20 07:48:48;;;;;;;53.65;31.02;;;0.20;99.90;;;;;;4994976;28;20433;-72
2024/01/20 07:51:14;;;;;;;54.75;30.98;;;0.30;99.90;;;;;;4994352;28;20548;-71
2024/01/20 07:53:39;;;;;;;55.25;31.88;;;0.30;99.90;;;;;;4991645;28;20050;-71
2024/01/20 07:56:09;;;;;;;53.65;31.35;;;0.20;99.90;;;;;;4989969;28;20054;-72
2024/01/20 07:58:35;;;;;;;50.28;30.75;;;0.20;99.90;;;;;;4996695;28;20100;-71
2024/01/20 08:01:00;;;;;;;56.63;31.33;;;0.20;99.90;;;;;;4991141;28;20085;-71
2024/01/20 08:03:26;;;;;;;59.38;31.83;;;0.30;99.90;;;;;;4992260;28;20092;-72
2024/01/20 08:05:52;;;;;;;50.72;31.10;;;0.30;99.90;;;;;;4980304;28;20049;-72
2024/01/20 08:08:18;;;;;;;53.28;32.58;;;0.30;99.90;;;;;;4992132;28;20387;-71
2024/01/20 08:10:44;;;;;;;54.22;31.48;;;0.30;99.90;;;;;;4984465;28;20048;-71
2024/01/20 08:13:10;;;;;;;53.72;32.17;;;0.30;99.90;;;;;;4983890;28;20038;-71
2024/01/20 08:15:36;;;;;;;53.53;31.45;;;0.30;99.90;;;;;;4983306;28;20045;-72
2024/01/20 08:18:01;;;;;;;52.50;30.63;;;0.30;99.90;;;;;;4984344;28;20472;-71
2024/01/20 08:20:27;;;;;;;50.45;30.27;;;0.30;99.90;;;;;;4998327;28;20041;-72
2024/01/20 08:22:53;;;;;;;53.65;29.77;;;0.30;99.90;;;;;;4995376;28;20049;-71
2024/01/20 08:25:18;;;;;;;53.08;31.73;;;0.30;99.90;;;;;;4995016;28;20129;-71
2024/01/20 08:27:44;;;;;;;50.05;30.48;;;0.40;99.90;;;;;;4998100;28;20042;-71
2024/01/20 08:30:11;;;;;;;52.50;30.60;;;0.30;99.90;;;;;;4982326;28;20034;-72
2024/01/20 08:32:37;;;;;;;50.13;29.27;;;0.40;99.90;;;;;;4980443;28;20074;-71
2024/01/20 08:35:03;;;;;;;53.80;30.02;;;0.40;99.90;;;;;;5017798;28;20420;-72
2024/01/20 08:37:29;;;;;;;51.08;29.13;;;0.40;99.90;;;;;;4979943;28;20061;-72
2024/01/20 08:39:55;;;;;;;50.95;29.90;;;0.50;99.90;;;;;;4997458;28;20065;-71
2024/01/20 08:42:21;;;;;;;50.22;30.33;;;0.50;99.90;;;;;;4985917;28;20049;-71
2024/01/20 08:44:46;;;;;;;49.47;29.83;;;0.60;99.90;;;;;;5011196;28;20350;-71
2024/01/20 08:47:12;;;;;;;48.35;29.10;;;0.70;99.90;;;;;;4991688;28;20033;-71
2024/01/20 08:49:38;;;;;;;48.38;28.63;;;0.70;99.90;;;;;;5013411;28;20037;-71
2024/01/20 08:52:04;;;;;;;48.90;28.85;;;0.70;99.90;;;;;;4993909;28;20441;-71
2024/01/20 08:54:30;;;;;;;45.67;28.85;;;0.80;99.90;;;;;;4997284;28;20037;-71
2024/01/20 08:56:56;;;;;;;45.17;29.25;;;0.80;99.90;;;;;;4998741;28;20115;-71
2024/01/20 08:59:22;;;;;;;48.72;29.45;;;0.90;99.90;;;;;;4996937;28;20507;-71
2024/01/20 09:01:48;;;;;;;43.92;28.10;;;0.90;99.90;;;;;;5012658;28;20045;-71
2024/01/20 09:04:13;;;;;;;48.83;28.60;;;0.90;99.90;;;;;;4983681;28;20473;-72
2024/01/20 09:06:39;;;;;;;47.63;27.40;;;0.90;99.90;;;;;;4993092;28;20525;-72
2024/01/20 09:09:05;;;;;;;45.90;28.40;;;1.00;99.90;;;;;;4991201;28;20053;-71
2024/01/20 09:11:31;;;;;;;51.85;27.90;;;1.10;99.90;;;;;;4988006;28;20397;-72
2024/01/20 09:13:57;;;;;;;46.03;27.35;;;1.00;99.90;;;;;;5010469;28;20050;-71
2024/01/20 09:16:23;;;;;;;46.13;28.00;;;1.10;99.90;;;;;;4997821;28;20467;-72
2024/01/20 09:18:48;;;;;;;44.38;26.85;;;1.10;99.90;;;;;;4991478;28;20050;-71
2024/01/20 09:21:14;;;;;;;45.55;26.58;;;1.20;99.90;;;;;;4982479;28;20041;-72
2024/01/20 09:23:41;;;;;;;47.65;28.30;;;1.30;99.90;;;;;;4993681;28;20073;-72
2024/01/20 09:26:06;;;;;;;43.20;26.70;;;1.30;99.90;;;;;;4982663;28;20148;-72
2024/01/20 09:28:32;;;;;;;44.85;25.98;;;1.40;99.90;;;;;;4989253;28;20132;-72
2024/01/20 09:30:58;;;;;;;41.05;24.25;;;1.40;99.90;;;;;;4979939;28;20053;-72
2024/01/20 09:33:24;;;;;;;47.05;25.45;;;1.50;99.90;;;;;;4992885;28;20048;-72
2024/01/20 09:35:49;;;;;;;38.97;25.35;;;1.50;99.90;;;;;;4996907;28;20114;-72
2024/01/20 09:38:15;;;;;;;36.70;23.88;;;1.60;99.90;;;;;;4995078;28;20062;-72
2024/01/20 09:40:41;;;;;;;37.60;24.02;;;1.70;99.90;;;;;;5024885;28;20053;-72
2024/01/20 09:43:08;;;;;;;43.00;25.20;;;1.70;99.90;;;;;;4991415;28;20057;-72
2024/01/20 09:45:38;;;;;;;41.42;24.25;;;1.70;99.90;;;;;;4992646;28;20038;-72
2024/01/20 09:48:06;;;;;;;39.90;24.05;;;1.80;99.90;;;;;;5004244;28;20038;-72
2024/01/20 09:50:31;;;;;;;40.08;24.65;;;1.80;99.90;;;;;;4989465;28;20104;-72
2024/01/20 09:53:03;;;;;;;39.10;23.15;;;1.80;99.90;;;;;;4978271;28;20510;-72
2024/01/20 09:55:29;;;;;;;41.63;24.63;;;1.80;99.90;;;;;;4993505;28;20077;-72
2024/01/20 09:57:56;;;;;;;37.45;22.80;;;1.90;99.90;;;;;;4984122;28;20137;-72
2024/01/20 10:00:23;;;;;;;37.28;23.20;;;1.90;99.90;;;;;;4994318;28;20046;-72
2024/01/20 10:02:49;;;;;;;38.80;22.80;;;1.90;99.90;;;;;;4997828;28;20432;-72
2024/01/20 10:05:16;;;;;;;39.45;22.08;;;2.00;99.90;;;;;;4979692;28;20038;-72
2024/01/20 10:07:42;;;;;;;40.53;23.25;;;2.10;99.90;;;;;;4992162;28;20041;-72
2024/01/20 10:10:17;;;;;;;34.53;22.23;;;2.20;99.90;;;;;;4992655;28;20114;-72
2024/01/20 10:12:42;;;;;;;;;;;2.10;99.90;;;;;;4994315;28;20125;-72
2024/01/20 10:15:08;;;;;;;38.17;22.20;;;2.10;99.90;;;;;;4982252;28;20052;-72
2024/01/20 10:17:37;;;;;;;37.15;22.63;;;2.20;99.90;;;;;;4983356;28;20037;-72
2024/01/20 10:20:04;;;;;;;35.10;21.65;;;2.30;99.90;;;;;;5008905;28;20389;-72
2024/01/20 10:22:29;;;;;;;36.33;21.85;;;2.30;99.90;;;;;;4985129;28;20123;-72
2024/01/20 10:24:55;;;;;;;33.47;21.38;;;2.40;99.90;;;;;;4992135;28;20501;-72
2024/01/20 10:27:24;;;;;;;31.67;20.90;;;2.50;99.90;;;;;;5005329;28;20125;-73
2024/01/20 10:29:50;;;;;;;39.40;21.80;;;2.50;99.90;;;;;;4995518;28;20053;-73
2024/01/20 10:32:16;;;;;;;37.25;22.10;;;2.50;99.90;;;;;;5023012;28;20056;-73
2024/01/20 10:34:43;;;;;;;34.03;20.05;;;2.50;99.90;;;;;;4987521;28;20628;-73
2024/01/20 10:37:12;;;;;;;35.13;20.90;;;2.60;99.90;;;;;;4996025;28;20062;-73
2024/01/20 10:39:43;;;;;;;32.72;20.00;;;2.60;99.90;;;;;;5005364;28;20037;-72
2024/01/20 10:42:13;;;;;;;32.45;20.00;;;2.60;99.90;;;;;;4980754;28;20094;-73
2024/01/20 10:44:44;;;;;;;36.65;20.55;;;2.70;99.90;;;;;;4978044;28;20633;-72
2024/01/20 10:47:18;;;;;;;33.03;20.45;;;2.70;99.90;;;;;;4995168;28;20037;-72
2024/01/20 10:49:45;;;;;;;33.03;20.42;;;2.60;99.90;;;;;;4988589;28;20064;-73
2024/01/20 10:52:13;;;;;;;33.75;20.23;;;2.60;99.90;;;;;;4989713;28;20113;-72
2024/01/20 10:54:41;;;;;;;33.78;20.48;;;2.70;99.90;;;;;;5001935;28;20046;-72
2024/01/20 10:57:07;;;;;;;37.30;21.02;;;2.80;99.90;;;;;;4980120;28;20077;-72
2024/01/20 10:59:39;;;;;;;34.78;21.35;;;2.70;99.90;;;;;;4993583;28;20081;-72
2024/01/20 11:02:07;;;;;;;33.88;20.30;;;2.70;99.90;;;;;;5005844;28;20110;-72
2024/01/20 11:04:35;;;;;;;31.25;19.75;;;2.70;99.90;;;;;;4992082;28;20412;-72
2024/01/20 11:07:01;;;;;;;30.98;19.98;;;2.80;99.90;;;;;;4979040;28;20140;-72
2024/01/20 11:09:26;;;;;;;33.55;21.50;;;2.80;99.90;;;;;;4991319;28;20129;-72
2024/01/20 11:12:01;;;;;;;34.67;21.35;;;2.70;99.90;;;;;;4998090;28;20121;-72
2024/01/20 11:14:31;;;;;;;36.38;21.15;;;2.70;99.90;;;;;;4979981;28;20048;-72
2024/01/20 11:16:57;;;;;;;37.03;21.33;;;2.70;99.90;;;;;;4993353;28;20045;-72
2024/01/20 11:19:27;;;;;;;36.17;20.35;;;2.70;99.90;;;;;;4983093;28;20034;-72
2024/01/20 11:21:53;;;;;;;34.45;21.13;;;2.70;99.90;;;;;;4992926;28;20050;-72
2024/01/20 11:24:34;;;;;;;35.13;20.83;;;2.60;99.90;;;;;;4997717;28;20378;-72
2024/01/20 11:27:04;;;;;;;34.30;20.90;;;2.70;99.90;;;;;;4981657;28;20308;-72
2024/01/20 11:29:29;;;;;;;34.15;21.48;;;2.60;99.90;;;;;;4982508;28;20426;-72
2024/01/20 11:31:56;;;;;;;35.75;20.67;;;2.60;99.90;;;;;;4999685;28;20085;-72
2024/01/20 11:34:22;;;;;;;37.42;21.52;;;2.60;99.90;;;;;;4985416;28;20547;-72
2024/01/20 11:36:48;;;;;;;33.80;21.38;;;2.60;99.90;;;;;;5008471;28;20115;-72
2024/01/20 11:39:14;;;;;;;37.28;21.67;;;2.60;99.90;;;;;;4981999;28;20073;-72
2024/01/20 11:41:40;;;;;;;37.85;22.40;;;2.60;99.90;;;;;;4993135;28;20401;-73
2024/01/20 11:44:06;;;;;;;36.70;21.67;;;2.50;99.90;;;;;;4994640;28;20041;-72
2024/01/20 11:46:32;;;;;;;35.67;20.98;;;2.50;99.90;;;;;;5028352;28;20128;-72
2024/01/20 11:48:58;;;;;;;35.88;22.02;;;2.50;99.90;;;;;;4994785;28;20515;-72
2024/01/20 11:51:24;;;;;;;37.78;23.15;;;2.50;99.90;;;;;;4997349;28;20475;-72
2024/01/20 11:53:50;;;;;;;36.42;21.60;;;2.40;99.90;;;;;;4982397;28;20494;-72
2024/01/20 11:56:16;;;;;;;35.85;22.20;;;2.50;99.90;;;;;;5001670;28;20473;-72
2024/01/20 11:58:42;;;;;;;37.13;22.40;;;2.50;99.90;;;;;;4984543;28;20045;-72
2024/01/20 12:01:08;;;;;;;35.83;22.42;;;2.50;99.90;;;;;;4987627;28;20042;-72
2024/01/20 12:03:34;;;;;;;40.70;23.08;;;2.50;99.90;;;;;;4982389;28;20054;-72
2024/01/20 12:06:05;;;;;;;36.58;23.83;;;2.60;99.90;;;;;;5027006;28;21221;-72
2024/01/20 12:08:31;;;;;;;37.65;22.70;;;2.60;99.90;;;;;;4982858;28;20046;-72
2024/01/20 12:10:57;;;;;;;37.08;23.45;;;2.60;99.90;;;;;;5002474;28;20505;-72
2024/01/20 12:13:24;;;;;;;35.53;22.48;;;2.60;99.90;;;;;;4984762;28;20048;-72
2024/01/20 12:15:50;;;;;;;35.78;22.60;;;2.60;99.90;;;;;;4982721;28;20050;-72
2024/01/20 12:18:19;;;;;;;35.10;22.50;;;2.60;99.90;;;;;;4999447;28;20712;-72
2024/01/20 12:20:45;;;;;;;35.10;22.27;;;2.80;99.90;;;;;;4978697;28;20042;-72
2024/01/20 12:23:20;;;;;;;35.35;22.88;;;2.70;99.90;;;;;;4977378;28;20688;-72
2024/01/20 12:25:46;;;;;;;37.30;22.90;;;2.80;99.90;;;;;;5020895;28;20560;-72
2024/01/20 12:28:12;;;;;;;34.83;22.17;;;2.80;99.90;;;;;;5013938;28;20038;-72
2024/01/20 12:30:38;;;;;;;37.53;21.85;;;3.00;99.90;;;;;;4994344;28;20037;-72